Sagamore, Pennsylvania
Current Conditions -  °F | °C
As of 5:35 AM on Wednesday 22 Oct 2014 (Local Time) from KIDI Reporting Station
Overcast Overcast  
Wind Chill: 46°   Ceiling: 1500
Heat Index: 48°   Visibility: 10mi
Dew Point: 46°   Wind: 6mph
Humidity: 93%   Direction: NA
Pressure: 30.07"   Gusts: 12mph
Location:  40.78°N, 79.23°W
Report Text: KIDI 220935Z AUTO VRB05G10KT 10SM FEW009 BKN015 OVC021 09/08 A3007 RMK A01
Loading
Personal Weather Stations






























Interactive Weather Map
Tropical Storm Tracking
New forecast layout! Learn more

10-Day Weather Forecast

Advertisements
Track Severe Weather on mobile